createdAt,value
2019-02-06T00:00:55.463Z,24.45
2019-02-06T00:03:26.169Z,23.12
2019-02-06T00:05:56.698Z,26.35
2019-02-06T00:08:26.934Z,25.17
2019-02-06T00:10:59.204Z,28.90
2019-02-06T00:13:30.138Z,28.95
2019-02-06T00:16:00.356Z,25.70
2019-02-06T00:18:31.294Z,23.18
2019-02-06T00:21:01.476Z,20.50
2019-02-06T00:23:32.849Z,31.57
2019-02-06T00:26:02.988Z,26.23
2019-02-06T00:28:33.654Z,15.03
2019-02-06T00:31:03.811Z,18.32
2019-02-06T00:33:34.145Z,19.70
2019-02-06T00:36:05.801Z,18.20
2019-02-06T00:38:37.665Z,22.70
2019-02-06T00:41:10.408Z,21.65
2019-02-06T00:43:41.095Z,22.95
2019-02-06T00:46:11.272Z,22.58
2019-02-06T00:48:41.435Z,21.40
2019-02-06T00:51:13.507Z,18.37
2019-02-06T00:53:44.520Z,22.37
2019-02-06T00:56:14.666Z,26.73
2019-02-06T00:58:45.315Z,25.48
2019-02-06T01:01:16.516Z,23.47
2019-02-06T01:03:46.647Z,20.15
2019-02-06T01:06:16.959Z,21.12
2019-02-06T01:08:47.996Z,23.05
2019-02-06T01:11:18.861Z,25.15
2019-02-06T01:13:49.030Z,21.27
2019-02-06T01:16:19.176Z,17.30
2019-02-06T01:18:49.602Z,19.60
2019-02-06T01:21:19.775Z,17.25
2019-02-06T01:23:50.083Z,18.37
2019-02-06T01:26:20.217Z,22.07
2019-02-06T01:28:50.814Z,17.65
2019-02-06T01:31:24.380Z,18.57
2019-02-06T01:33:55.762Z,19.23
2019-02-06T01:36:26.255Z,18.77
2019-02-06T01:38:56.487Z,24.05
2019-02-06T01:41:27.758Z,21.62
2019-02-06T01:44:05.554Z,28.23
2019-02-06T01:46:36.347Z,27.45
2019-02-06T01:49:06.834Z,28.00
2019-02-06T01:51:37.921Z,29.05
2019-02-06T01:54:08.279Z,26.87
2019-02-06T01:56:38.422Z,25.10
2019-02-06T01:59:09.477Z,25.97
2019-02-06T02:01:40.963Z,19.65
2019-02-06T02:04:12.238Z,18.00
2019-02-06T02:06:44.811Z,26.10
2019-02-06T02:09:21.002Z,25.75
2019-02-06T02:11:53.086Z,24.57
2019-02-06T02:14:23.243Z,30.48
2019-02-06T02:16:53.429Z,20.15
2019-02-06T02:19:23.559Z,15.88
2019-02-06T02:21:53.708Z,22.90
2019-02-06T02:24:23.916Z,18.98
2019-02-06T02:26:54.179Z,21.27
2019-02-06T02:29:25.108Z,22.17
2019-02-06T02:31:56.923Z,19.05
2019-02-06T02:34:28.056Z,22.58
2019-02-06T02:36:58.769Z,20.10
2019-02-06T02:39:33.334Z,22.17
2019-02-06T02:42:04.005Z,25.65
2019-02-06T02:44:34.324Z,24.02
2019-02-06T02:47:04.731Z,23.52
2019-02-06T02:49:34.980Z,19.55
2019-02-06T02:52:05.183Z,19.70
2019-02-06T02:54:37.697Z,22.00
2019-02-06T02:57:08.158Z,20.45
2019-02-06T02:59:40.600Z,18.35
2019-02-06T03:02:38.491Z,18.30
2019-02-06T03:05:13.291Z,19.05
2019-02-06T03:07:48.282Z,19.37
2019-02-06T03:10:18.518Z,17.62
2019-02-06T03:12:52.246Z,21.25
2019-02-06T03:15:23.417Z,26.57
2019-02-06T03:17:53.674Z,21.73
2019-02-06T03:20:24.008Z,18.80
2019-02-06T03:22:54.202Z,20.60
2019-02-06T03:25:24.476Z,18.75
2019-02-06T03:27:55.215Z,16.12
2019-02-06T03:30:25.863Z,22.32
2019-02-06T03:32:56.862Z,20.95
2019-02-06T03:35:32.333Z,23.95
2019-02-06T03:38:02.801Z,23.10
2019-02-06T03:40:35.857Z,25.32
2019-02-06T03:43:06.055Z,19.27
2019-02-06T03:45:36.289Z,21.62
2019-02-06T03:48:06.590Z,22.32
2019-02-06T03:50:41.547Z,19.90
2019-02-06T03:53:12.584Z,19.40
2019-02-06T03:55:46.543Z,14.55
2019-02-06T03:58:19.809Z,18.27
2019-02-06T04:00:51.260Z,17.45
2019-02-06T04:03:23.622Z,29.15
2019-02-06T04:05:53.724Z,20.55
2019-02-06T04:08:24.080Z,20.12
2019-02-06T04:10:55.121Z,26.93
2019-02-06T04:13:26.808Z,28.67
2019-02-06T04:15:56.956Z,20.08
2019-02-06T04:18:28.991Z,18.50
2019-02-06T04:20:59.731Z,20.25
2019-02-06T04:23:29.863Z,21.87
2019-02-06T04:26:00.330Z,18.85
2019-02-06T04:28:32.529Z,23.80
2019-02-06T04:31:02.666Z,19.32
2019-02-06T04:33:32.878Z,18.10
2019-02-06T04:36:03.549Z,17.37
2019-02-06T04:38:34.075Z,15.28
2019-02-06T04:41:05.182Z,19.52
2019-02-06T04:43:36.421Z,24.40
2019-02-06T04:46:15.432Z,24.72
2019-02-06T04:48:50.451Z,17.52
2019-02-06T04:53:50.615Z,19.80
2019-02-06T04:56:21.847Z,19.85
2019-02-06T04:58:52.049Z,22.62
2019-02-06T05:01:22.156Z,19.70
2019-02-06T05:03:52.345Z,24.57
2019-02-06T05:06:23.317Z,18.62
2019-02-06T05:08:53.503Z,18.82
2019-02-06T05:11:23.739Z,20.32
2019-02-06T05:13:54.479Z,18.95
2019-02-06T05:16:24.738Z,18.82
2019-02-06T05:18:56.736Z,23.15
2019-02-06T05:21:26.986Z,16.42
2019-02-06T05:23:57.203Z,20.37
2019-02-06T05:26:27.328Z,19.60
2019-02-06T05:28:57.883Z,17.65
2019-02-06T05:31:28.091Z,19.17
2019-02-06T05:33:58.309Z,25.75
2019-02-06T05:36:33.632Z,26.40
2019-02-06T05:39:08.318Z,24.27
2019-02-06T05:41:39.086Z,20.30
2019-02-06T05:44:10.265Z,23.18
2019-02-06T05:46:40.812Z,24.55
2019-02-06T05:49:11.337Z,23.95
2019-02-06T05:51:41.490Z,23.05
2019-02-06T05:54:11.843Z,27.60
2019-02-06T05:56:42.003Z,24.92
2019-02-06T05:59:13.117Z,21.30
2019-02-06T06:01:45.935Z,22.07
2019-02-06T06:04:16.139Z,25.75
2019-02-06T06:06:47.332Z,22.58
2019-02-06T06:09:18.944Z,21.75
2019-02-06T06:11:51.406Z,22.15
2019-02-06T06:14:21.606Z,24.82
2019-02-06T06:16:52.091Z,23.65
2019-02-06T06:19:22.198Z,23.87
2019-02-06T06:21:52.612Z,18.75
2019-02-06T06:24:25.398Z,26.52
2019-02-06T06:26:57.312Z,30.60
2019-02-06T06:29:28.885Z,19.92
2019-02-06T06:31:59.534Z,23.75
2019-02-06T06:34:29.870Z,24.43
2019-02-06T06:37:00.226Z,21.48
2019-02-06T06:39:30.402Z,21.25
2019-02-06T06:42:02.556Z,25.55
2019-02-06T06:44:32.814Z,21.12
2019-02-06T06:47:04.553Z,24.63
2019-02-06T06:49:36.539Z,23.87
2019-02-06T06:52:06.772Z,21.70
2019-02-06T06:54:37.021Z,23.45
2019-02-06T06:57:07.260Z,19.82
2019-02-06T06:59:37.415Z,24.18
2019-02-06T07:02:07.555Z,28.50
2019-02-06T07:04:40.738Z,27.77
2019-02-06T07:07:10.915Z,23.75
2019-02-06T07:09:41.141Z,27.65
2019-02-06T07:12:30.355Z,24.43
2019-02-06T07:15:05.526Z,34.67
2019-02-06T07:17:36.893Z,30.37
2019-02-06T07:20:08.583Z,26.77
2019-02-06T07:22:39.989Z,24.90
2019-02-06T07:25:10.390Z,22.52
2019-02-06T07:27:40.919Z,26.87
2019-02-06T07:30:18.603Z,24.67
2019-02-06T07:32:48.850Z,27.80
2019-02-06T07:35:19.228Z,31.60
2019-02-06T07:37:49.408Z,29.25
2019-02-06T07:40:20.369Z,29.70
2019-02-06T07:42:52.346Z,30.50
2019-02-06T07:45:24.634Z,33.88
2019-02-06T07:47:57.602Z,32.13
2019-02-06T07:50:30.615Z,33.23
2019-02-06T07:53:01.640Z,38.48
2019-02-06T07:55:31.802Z,35.17
2019-02-06T07:58:02.197Z,34.25
2019-02-06T08:00:32.310Z,44.27
2019-02-06T08:03:02.605Z,41.48
2019-02-06T08:05:32.769Z,37.93
2019-02-06T08:08:02.901Z,39.05
2019-02-06T08:10:34.462Z,37.93
2019-02-06T08:13:06.084Z,43.30
2019-02-06T08:15:37.529Z,34.03
2019-02-06T08:18:08.294Z,37.30
2019-02-06T08:20:39.688Z,34.05
2019-02-06T08:23:12.502Z,40.48
2019-02-06T08:25:42.736Z,51.40
2019-02-06T08:28:13.006Z,44.53
2019-02-06T08:30:44.038Z,51.02
2019-02-06T08:33:15.141Z,39.58
2019-02-06T08:35:47.258Z,57.17
2019-02-06T08:38:17.509Z,54.10
2019-02-06T08:40:49.844Z,51.85
2019-02-06T08:43:20.063Z,46.58
2019-02-06T08:45:50.642Z,47.25
2019-02-06T08:48:20.843Z,49.20
2019-02-06T08:50:53.259Z,66.45
2019-02-06T08:53:23.629Z,67.55
2019-02-06T08:55:54.606Z,61.85
2019-02-06T08:58:25.127Z,53.80
2019-02-06T09:00:56.560Z,49.58
2019-02-06T09:03:26.730Z,41.28
2019-02-06T09:05:59.668Z,40.25
2019-02-06T09:08:30.017Z,41.25
2019-02-06T09:11:00.190Z,39.88
2019-02-06T09:13:31.008Z,33.35
2019-02-06T09:16:01.265Z,36.77
2019-02-06T09:18:31.441Z,29.67
2019-02-06T09:21:01.618Z,25.45
2019-02-06T09:23:31.751Z,24.50
2019-02-06T09:26:01.881Z,21.52
2019-02-06T09:28:32.491Z,19.60
2019-02-06T09:31:02.622Z,17.82
2019-02-06T09:33:32.805Z,13.83
2019-02-06T09:36:03.081Z,18.48
2019-02-06T09:38:33.286Z,15.20
2019-02-06T09:41:03.501Z,12.13
2019-02-06T09:43:33.839Z,13.55
2019-02-06T09:46:03.920Z,12.98
2019-02-06T09:48:34.075Z,15.85
2019-02-06T09:51:04.220Z,14.58
2019-02-06T09:53:34.541Z,12.37
2019-02-06T09:56:05.051Z,13.18
2019-02-06T09:58:35.164Z,12.80
2019-02-06T10:01:05.349Z,13.93
2019-02-06T10:03:35.464Z,13.18
2019-02-06T10:06:05.756Z,11.15
2019-02-06T10:08:35.229Z,10.18
2019-02-06T10:11:05.765Z,12.37
2019-02-06T10:13:36.102Z,10.68
2019-02-06T10:16:06.418Z,15.00
2019-02-06T10:18:36.639Z,10.68
2019-02-06T10:21:08.198Z,16.30
2019-02-06T10:23:38.621Z,13.18
2019-02-06T10:26:09.146Z,11.25
2019-02-06T10:28:39.332Z,17.37
2019-02-06T10:31:09.497Z,11.48
2019-02-06T10:33:39.612Z,8.98
2019-02-06T10:36:09.838Z,10.85
2019-02-06T10:38:39.959Z,9.85
2019-02-06T10:41:10.194Z,11.97
2019-02-06T10:43:40.398Z,11.93
2019-02-06T10:46:10.547Z,10.60
2019-02-06T10:48:40.666Z,14.78
2019-02-06T10:51:11.342Z,16.40
2019-02-06T10:53:42.107Z,10.20
2019-02-06T10:56:12.326Z,9.93
2019-02-06T10:58:42.575Z,9.63
2019-02-06T11:01:12.785Z,12.28
2019-02-06T11:03:43.006Z,10.13
2019-02-06T11:06:13.553Z,9.90
2019-02-06T11:08:47.875Z,20.17
2019-02-06T11:11:18.139Z,14.00
2019-02-06T11:13:49.837Z,11.43
2019-02-06T11:16:23.179Z,9.38
2019-02-06T11:18:53.305Z,8.83
2019-02-06T11:21:24.219Z,10.98
2019-02-06T11:23:54.404Z,9.63
2019-02-06T11:26:24.736Z,10.63
2019-02-06T11:28:54.851Z,11.60
2019-02-06T11:31:25.115Z,10.68
2019-02-06T11:33:55.323Z,13.20
2019-02-06T11:36:25.564Z,11.88
2019-02-06T11:38:56.936Z,8.48
2019-02-06T11:41:27.093Z,11.95
2019-02-06T11:43:57.321Z,8.48
2019-02-06T11:46:27.467Z,6.37
2019-02-06T11:48:59.662Z,9.73
2019-02-06T11:51:29.855Z,8.38
2019-02-06T11:54:00.118Z,11.03
2019-02-06T11:56:30.466Z,9.68
2019-02-06T11:59:00.591Z,9.18
2019-02-06T12:01:40.853Z,12.47
2019-02-06T12:04:11.260Z,8.08
2019-02-06T12:06:41.388Z,7.87
2019-02-06T12:09:13.740Z,8.28
2019-02-06T12:11:43.836Z,6.08
2019-02-06T12:14:14.557Z,9.05
2019-02-06T12:16:44.830Z,7.08
2019-02-06T12:19:15.128Z,7.90
2019-02-06T12:21:45.265Z,7.85
2019-02-06T12:24:15.457Z,7.90
2019-02-06T12:26:46.015Z,8.95
2019-02-06T12:29:16.551Z,7.47
2019-02-06T12:31:46.779Z,8.13
2019-02-06T12:34:17.726Z,7.87
2019-02-06T12:36:53.105Z,7.45
2019-02-06T12:39:24.832Z,5.25
2019-02-06T12:41:57.587Z,6.92
2019-02-06T12:44:28.977Z,6.67
2019-02-06T12:46:59.830Z,5.85
2019-02-06T12:49:29.986Z,7.35
2019-02-06T12:52:00.154Z,6.55
2019-02-06T12:54:30.298Z,6.60
2019-02-06T12:57:03.559Z,7.67
2019-02-06T12:59:37.483Z,8.18
2019-02-06T13:02:09.822Z,4.58
2019-02-06T13:04:39.980Z,7.15
2019-02-06T13:07:11.378Z,8.65
2019-02-06T13:09:43.647Z,6.70
2019-02-06T13:12:13.790Z,6.17
2019-02-06T13:14:43.977Z,8.03
2019-02-06T13:17:15.521Z,5.08
2019-02-06T13:19:45.718Z,7.22
2019-02-06T13:22:15.840Z,5.90
2019-02-06T13:24:52.168Z,6.37
2019-02-06T13:27:23.501Z,8.40
2019-02-06T13:29:53.647Z,6.37
2019-02-06T13:32:25.572Z,6.17
2019-02-06T13:34:55.922Z,6.60
2019-02-06T13:37:26.553Z,8.65
2019-02-06T13:39:56.996Z,7.08
2019-02-06T13:42:27.319Z,5.92
2019-02-06T13:44:57.951Z,4.95
2019-02-06T13:47:28.228Z,6.47
2019-02-06T13:49:58.783Z,5.97
2019-02-06T13:52:29.015Z,6.55
2019-02-06T13:54:59.267Z,5.08
2019-02-06T13:57:33.703Z,9.85
2019-02-06T14:00:01.278Z,6.33
2019-02-06T14:02:31.970Z,9.20
2019-02-06T14:05:02.625Z,4.80
2019-02-06T14:07:32.912Z,6.50
2019-02-06T14:10:03.246Z,4.62
2019-02-06T14:12:36.556Z,3.95
2019-02-06T14:15:08.971Z,4.62
2019-02-06T14:17:40.853Z,3.95
2019-02-06T14:24:27.946Z,4.83
2019-02-06T14:27:35.228Z,5.08
2019-02-06T14:38:24.493Z,9.78
2019-02-06T14:41:46.935Z,8.98
2019-02-06T14:45:40.092Z,8.80
2019-02-06T14:56:22.130Z,7.25
2019-02-06T14:59:46.843Z,8.78
2019-02-06T15:03:15.644Z,7.87
2019-02-06T15:13:46.422Z,15.30
2019-02-06T15:17:01.205Z,14.68
2019-02-06T15:20:24.300Z,15.43
2019-02-06T15:23:48.616Z,17.82
2019-02-06T15:27:06.495Z,14.78
2019-02-06T15:30:40.272Z,13.32
2019-02-06T15:34:26.654Z,14.80
2019-02-06T15:38:06.243Z,15.13
2019-02-06T15:41:53.683Z,16.05
2019-02-06T15:45:31.748Z,16.77
2019-02-06T15:50:32.469Z,14.60
2019-02-06T15:52:11.763Z,18.65
2019-02-06T15:55:29.590Z,12.07
2019-02-06T15:58:51.790Z,15.85
2019-02-06T16:01:51.863Z,14.50
2019-02-06T16:05:36.915Z,15.10
2019-02-06T16:08:59.936Z,22.32
2019-02-06T16:11:42.852Z,16.07
2019-02-06T16:14:59.923Z,10.08
2019-02-06T16:18:02.679Z,12.35
2019-02-06T16:21:07.936Z,11.78
2019-02-06T16:24:09.183Z,18.40
2019-02-06T16:27:16.066Z,17.50
2019-02-06T16:30:20.711Z,12.82
2019-02-06T16:33:04.990Z,8.23
2019-02-06T16:36:07.929Z,6.83
2019-02-06T16:38:51.509Z,7.03
2019-02-06T16:41:57.446Z,6.87
2019-02-06T16:44:48.115Z,6.72
2019-02-06T16:47:46.082Z,5.60
2019-02-06T16:50:34.236Z,7.30
2019-02-06T16:53:56.447Z,8.20
2019-02-06T16:57:11.505Z,9.08
2019-02-06T17:00:27.863Z,7.15
2019-02-06T17:03:36.890Z,7.75
2019-02-06T17:06:41.202Z,8.43
2019-02-06T17:10:02.103Z,8.75
2019-02-06T17:13:01.618Z,7.97
2019-02-06T17:16:16.334Z,11.25
2019-02-06T17:18:58.088Z,7.15
2019-02-06T17:22:01.434Z,7.37
2019-02-06T17:25:25.777Z,12.13
2019-02-06T17:28:25.994Z,8.95
2019-02-06T17:31:32.736Z,9.33
2019-02-06T17:34:30.507Z,6.40
2019-02-06T17:37:54.749Z,7.17
2019-02-06T17:41:05.105Z,8.10
2019-02-06T17:44:20.479Z,8.53
2019-02-06T17:47:39.996Z,7.17
2019-02-06T17:50:54.170Z,8.60
2019-02-06T17:54:03.048Z,6.87
2019-02-06T17:56:33.586Z,8.83
2019-02-06T17:59:05.285Z,8.60
2019-02-06T18:01:39.053Z,8.35
2019-02-06T18:04:16.666Z,8.33
2019-02-06T18:06:46.891Z,7.35
2019-02-06T18:09:18.333Z,8.05
2019-02-06T18:11:50.995Z,10.00
2019-02-06T18:14:21.423Z,9.85
2019-02-06T18:16:52.029Z,12.10
2019-02-06T18:19:22.371Z,8.70
2019-02-06T18:21:53.003Z,12.35
2019-02-06T18:24:25.552Z,12.28
2019-02-06T18:26:57.143Z,8.15
2019-02-06T18:29:27.746Z,8.70
2019-02-06T18:31:58.164Z,24.98
2019-02-06T18:34:34.204Z,11.48
2019-02-06T18:37:05.285Z,11.53
2019-02-06T18:39:36.035Z,11.05
2019-02-06T18:42:06.386Z,13.00
2019-02-06T18:44:36.726Z,10.93
2019-02-06T18:47:08.056Z,10.95
2019-02-06T18:49:38.294Z,14.60
2019-02-06T18:52:08.789Z,15.65
2019-02-06T18:54:42.421Z,14.40
2019-02-06T18:57:12.735Z,11.88
2019-02-06T18:59:44.474Z,13.93
2019-02-06T19:02:17.344Z,10.65
2019-02-06T19:04:48.791Z,12.25
2019-02-06T19:07:19.849Z,13.68
2019-02-06T19:09:52.810Z,17.32
2019-02-06T19:12:23.282Z,14.00
2019-02-06T19:14:54.276Z,15.95
2019-02-06T19:17:26.557Z,10.78
2019-02-06T19:19:58.805Z,13.90
2019-02-06T19:22:32.969Z,12.58
2019-02-06T19:25:05.346Z,18.10
2019-02-06T19:27:36.086Z,12.43
2019-02-06T19:30:11.765Z,14.80
2019-02-06T19:32:44.459Z,11.85
2019-02-06T19:35:14.230Z,17.07
2019-02-06T19:37:44.714Z,19.82
2019-02-06T19:40:15.390Z,16.10
2019-02-06T19:42:58.780Z,21.12
2019-02-06T19:45:22.873Z,12.93
2019-02-06T19:47:53.107Z,15.43
2019-02-06T19:50:25.779Z,17.50
2019-02-06T19:52:56.207Z,14.00
2019-02-06T19:55:32.385Z,22.42
2019-02-06T19:58:02.741Z,16.60
2019-02-06T20:00:33.262Z,19.98
2019-02-06T20:03:08.208Z,15.98
2019-02-06T20:05:38.789Z,18.70
2019-02-06T20:08:09.420Z,14.85
2019-02-06T20:10:42.202Z,12.63
2019-02-06T20:13:14.671Z,15.68
2019-02-06T20:15:44.804Z,15.83
2019-02-06T20:18:19.499Z,17.50
2019-02-06T20:20:49.952Z,18.42
2019-02-06T20:23:20.362Z,18.00
2019-02-06T20:25:50.879Z,19.48
2019-02-06T20:28:21.146Z,20.85
2019-02-06T20:30:51.541Z,19.35
2019-02-06T20:33:22.308Z,20.10
2019-02-06T20:35:53.269Z,21.37
2019-02-06T20:38:23.828Z,18.17
2019-02-06T20:40:54.158Z,17.02
2019-02-06T20:43:24.636Z,17.90
2019-02-06T20:45:55.159Z,19.82
2019-02-06T20:48:25.787Z,26.40
2019-02-06T20:50:56.077Z,15.80
2019-02-06T20:53:26.416Z,20.15
2019-02-06T20:55:56.933Z,14.45
2019-02-06T20:58:27.314Z,17.92
2019-02-06T21:01:01.493Z,20.40
2019-02-06T21:03:33.494Z,23.22
2019-02-06T21:06:06.244Z,19.70
2019-02-06T21:08:36.511Z,24.25
2019-02-06T21:11:06.793Z,29.87
2019-02-06T21:13:37.333Z,22.27
2019-02-06T21:16:07.983Z,25.05
2019-02-06T21:18:38.259Z,21.12
2019-02-06T21:21:08.580Z,21.37
2019-02-06T21:23:39.110Z,22.73
2019-02-06T21:26:09.317Z,22.02
2019-02-06T21:28:39.500Z,29.18
2019-02-06T21:31:09.835Z,24.15
2019-02-06T21:33:40.598Z,32.85
2019-02-06T21:36:10.974Z,28.12
2019-02-06T21:38:44.045Z,22.35
2019-02-06T21:41:14.244Z,18.95
2019-02-06T21:43:44.860Z,19.85
2019-02-06T21:46:15.347Z,21.85
2019-02-06T21:48:45.635Z,19.17
2019-02-06T21:51:25.576Z,14.18
2019-02-06T21:53:57.003Z,15.32
2019-02-06T21:56:29.666Z,14.03
2019-02-06T21:59:00.672Z,12.78
2019-02-06T22:01:32.776Z,16.23
2019-02-06T22:04:02.965Z,18.02
2019-02-06T22:06:33.747Z,17.45
2019-02-06T22:09:05.447Z,20.92
2019-02-06T22:11:43.063Z,11.65
2019-02-06T22:14:14.734Z,15.70
2019-02-06T22:16:47.295Z,13.13
2019-02-06T22:19:19.502Z,16.85
2019-02-06T22:21:49.768Z,15.32
2019-02-06T22:24:20.206Z,15.63
2019-02-06T22:26:50.404Z,11.03
2019-02-06T22:29:20.585Z,14.45
2019-02-06T22:31:50.882Z,16.45
2019-02-06T22:34:21.074Z,14.18
2019-02-06T22:36:53.747Z,15.20
2019-02-06T22:39:24.058Z,17.12
2019-02-06T22:41:54.180Z,15.35
2019-02-06T22:44:24.502Z,20.45
2019-02-06T22:46:55.194Z,13.98
2019-02-06T22:49:25.598Z,12.80
2019-02-06T22:51:55.719Z,14.28
2019-02-06T22:54:25.978Z,14.33
2019-02-06T22:56:58.962Z,16.60
2019-02-06T22:59:32.773Z,19.77
2019-02-06T23:02:03.599Z,14.65
2019-02-06T23:04:34.067Z,11.90
2019-02-06T23:07:07.068Z,13.95
2019-02-06T23:09:37.909Z,26.30
2019-02-06T23:12:08.991Z,25.75
2019-02-06T23:14:39.704Z,27.22
2019-02-06T23:17:12.044Z,27.77
2019-02-06T23:19:42.172Z,25.37
2019-02-06T23:22:12.514Z,27.22
2019-02-06T23:24:44.932Z,22.95
2019-02-06T23:27:15.467Z,25.88
2019-02-06T23:29:46.816Z,22.77
2019-02-06T23:32:17.023Z,26.77
2019-02-06T23:34:47.388Z,23.45
2019-02-06T23:37:17.709Z,22.42
2019-02-06T23:39:48.157Z,24.60
2019-02-06T23:42:18.438Z,28.65
2019-02-06T23:44:48.665Z,21.17
2019-02-06T23:47:18.768Z,20.60
2019-02-06T23:49:50.970Z,26.62
2019-02-06T23:52:21.787Z,20.52
2019-02-06T23:54:52.047Z,27.52
2019-02-06T23:57:24.575Z,27.17
2019-02-06T23:59:59.563Z,24.25
